sensor_id;sensor_type;location;lat;lon;timestamp;temperature;humidity
54461;DHT22;40371;49.414;11.010;2022-09-09T00:04:27;15.90;99.90
54461;DHT22;40371;49.414;11.010;2022-09-09T00:07:28;15.80;99.90
54461;DHT22;40371;49.414;11.010;2022-09-09T00:15:26;15.50;99.90
54461;DHT22;40371;49.414;11.010;2022-09-09T00:18:15;15.40;99.90
54461;DHT22;40371;49.414;11.010;2022-09-09T00:20:49;15.50;99.90
54461;DHT22;40371;49.414;11.010;2022-09-09T00:23:24;15.50;99.90
54461;DHT22;40371;49.414;11.010;2022-09-09T00:26:16;15.50;99.90
54461;DHT22;40371;49.414;11.010;2022-09-09T00:31:34;15.70;99.90
54461;DHT22;40371;49.414;11.010;2022-09-09T00:34:14;15.50;99.90
54461;DHT22;40371;49.414;11.010;2022-09-09T00:36:41;15.40;99.90
54461;DHT22;40371;49.414;11.010;2022-09-09T00:42:16;15.20;99.90
54461;DHT22;40371;49.414;11.010;2022-09-09T00:57:58;15.10;99.90
54461;DHT22;40371;49.414;11.010;2022-09-09T01:00:29;15.20;99.90
54461;DHT22;40371;49.414;11.010;2022-09-09T01:11:32;15.30;99.90
54461;DHT22;40371;49.414;11.010;2022-09-09T01:17:05;15.20;99.90
54461;DHT22;40371;49.414;11.010;2022-09-09T01:19:56;15.20;99.90
54461;DHT22;40371;49.414;11.010;2022-09-09T01:22:42;15.20;99.90
54461;DHT22;40371;49.414;11.010;2022-09-09T01:28:03;15.30;99.90
54461;DHT22;40371;49.414;11.010;2022-09-09T01:30:32;15.20;99.90
54461;DHT22;40371;49.414;11.010;2022-09-09T01:32:59;15.10;99.90
54461;DHT22;40371;49.414;11.010;2022-09-09T01:35:52;15.10;99.90
54461;DHT22;40371;49.414;11.010;2022-09-09T01:38:26;15.00;99.90
54461;DHT22;40371;49.414;11.010;2022-09-09T01:40:53;15.00;99.90
54461;DHT22;40371;49.414;11.010;2022-09-09T01:43:25;14.90;99.90
54461;DHT22;40371;49.414;11.010;2022-09-09T01:45:53;14.90;99.90
54461;DHT22;40371;49.414;11.010;2022-09-09T01:48:21;15.00;99.90
54461;DHT22;40371;49.414;11.010;2022-09-09T01:51:00;14.90;99.90
54461;DHT22;40371;49.414;11.010;2022-09-09T01:53:25;14.70;99.90
54461;DHT22;40371;49.414;11.010;2022-09-09T01:56:13;14.70;99.90
54461;DHT22;40371;49.414;11.010;2022-09-09T01:59:23;14.80;99.90
54461;DHT22;40371;49.414;11.010;2022-09-09T02:02:18;15.00;99.90
54461;DHT22;40371;49.414;11.010;2022-09-09T02:05:00;15.10;99.90
54461;DHT22;40371;49.414;11.010;2022-09-09T02:07:46;15.00;99.90
54461;DHT22;40371;49.414;11.010;2022-09-09T02:10:45;14.90;99.90
54461;DHT22;40371;49.414;11.010;2022-09-09T02:13:21;14.90;99.90
54461;DHT22;40371;49.414;11.010;2022-09-09T02:16:07;15.10;99.90
54461;DHT22;40371;49.414;11.010;2022-09-09T02:21:06;15.20;99.90
54461;DHT22;40371;49.414;11.010;2022-09-09T02:23:34;15.20;99.90
54461;DHT22;40371;49.414;11.010;2022-09-09T02:26:03;15.10;99.90
54461;DHT22;40371;49.414;11.010;2022-09-09T02:28:31;15.10;99.90
54461;DHT22;40371;49.414;11.010;2022-09-09T02:30:58;15.20;99.90
54461;DHT22;40371;49.414;11.010;2022-09-09T02:33:40;15.30;99.90
54461;DHT22;40371;49.414;11.010;2022-09-09T02:36:08;15.30;99.90
54461;DHT22;40371;49.414;11.010;2022-09-09T02:38:40;15.30;99.90
54461;DHT22;40371;49.414;11.010;2022-09-09T02:41:13;15.40;99.90
54461;DHT22;40371;49.414;11.010;2022-09-09T02:43:39;15.10;99.90
54461;DHT22;40371;49.414;11.010;2022-09-09T02:46:27;15.10;99.90
54461;DHT22;40371;49.414;11.010;2022-09-09T02:49:06;15.10;99.90
54461;DHT22;40371;49.414;11.010;2022-09-09T02:52:07;15.10;99.90
54461;DHT22;40371;49.414;11.010;2022-09-09T02:54:40;15.10;99.90
54461;DHT22;40371;49.414;11.010;2022-09-09T02:57:27;15.10;99.90
54461;DHT22;40371;49.414;11.010;2022-09-09T02:59:53;15.00;99.90
54461;DHT22;40371;49.414;11.010;2022-09-09T03:02:23;15.00;99.90
54461;DHT22;40371;49.414;11.010;2022-09-09T03:04:54;15.00;99.90
54461;DHT22;40371;49.414;11.010;2022-09-09T03:07:21;15.00;99.90
54461;DHT22;40371;49.414;11.010;2022-09-09T03:09:48;15.00;99.90
54461;DHT22;40371;49.414;11.010;2022-09-09T03:12:14;14.90;99.90
54461;DHT22;40371;49.414;11.010;2022-09-09T03:14:40;15.00;99.90
54461;DHT22;40371;49.414;11.010;2022-09-09T03:17:06;15.10;99.90
54461;DHT22;40371;49.414;11.010;2022-09-09T03:19:37;15.00;99.90
54461;DHT22;40371;49.414;11.010;2022-09-09T03:22:03;14.90;99.90
54461;DHT22;40371;49.414;11.010;2022-09-09T03:24:31;14.80;99.90
54461;DHT22;40371;49.414;11.010;2022-09-09T03:26:57;14.80;99.90
54461;DHT22;40371;49.414;11.010;2022-09-09T03:29:23;14.80;99.90
54461;DHT22;40371;49.414;11.010;2022-09-09T03:31:51;14.90;99.90
54461;DHT22;40371;49.414;11.010;2022-09-09T03:34:17;14.90;99.90
54461;DHT22;40371;49.414;11.010;2022-09-09T03:36:43;15.00;99.90
54461;DHT22;40371;49.414;11.010;2022-09-09T03:39:08;15.10;99.90
54461;DHT22;40371;49.414;11.010;2022-09-09T03:41:35;15.20;99.90
54461;DHT22;40371;49.414;11.010;2022-09-09T03:44:03;15.10;99.90
54461;DHT22;40371;49.414;11.010;2022-09-09T03:46:34;15.10;99.90
54461;DHT22;40371;49.414;11.010;2022-09-09T03:49:00;15.10;99.90
54461;DHT22;40371;49.414;11.010;2022-09-09T03:51:28;15.10;99.90
54461;DHT22;40371;49.414;11.010;2022-09-09T03:53:54;15.10;99.90
54461;DHT22;40371;49.414;11.010;2022-09-09T03:56:22;14.90;99.90
54461;DHT22;40371;49.414;11.010;2022-09-09T03:58:47;15.00;99.90
54461;DHT22;40371;49.414;11.010;2022-09-09T04:01:14;15.10;99.90
54461;DHT22;40371;49.414;11.010;2022-09-09T04:03:41;14.90;99.90
54461;DHT22;40371;49.414;11.010;2022-09-09T04:06:09;14.80;99.90
54461;DHT22;40371;49.414;11.010;2022-09-09T04:08:36;14.90;99.90
54461;DHT22;40371;49.414;11.010;2022-09-09T04:11:03;15.00;99.90
54461;DHT22;40371;49.414;11.010;2022-09-09T04:13:37;15.00;99.90
54461;DHT22;40371;49.414;11.010;2022-09-09T04:16:04;15.10;99.90
54461;DHT22;40371;49.414;11.010;2022-09-09T04:18:30;15.10;99.90
54461;DHT22;40371;49.414;11.010;2022-09-09T04:20:57;15.00;99.90
54461;DHT22;40371;49.414;11.010;2022-09-09T04:23:26;14.90;99.90
54461;DHT22;40371;49.414;11.010;2022-09-09T04:25:55;15.10;99.90
54461;DHT22;40371;49.414;11.010;2022-09-09T04:28:24;15.10;99.90
54461;DHT22;40371;49.414;11.010;2022-09-09T04:30:50;15.10;99.90
54461;DHT22;40371;49.414;11.010;2022-09-09T04:33:18;15.10;99.90
54461;DHT22;40371;49.414;11.010;2022-09-09T04:35:49;15.10;99.90
54461;DHT22;40371;49.414;11.010;2022-09-09T04:38:17;15.00;99.90
54461;DHT22;40371;49.414;11.010;2022-09-09T04:40:46;15.10;99.90
54461;DHT22;40371;49.414;11.010;2022-09-09T04:43:12;15.10;99.90
54461;DHT22;40371;49.414;11.010;2022-09-09T04:45:40;15.00;99.90
54461;DHT22;40371;49.414;11.010;2022-09-09T04:48:07;15.00;99.90
54461;DHT22;40371;49.414;11.010;2022-09-09T04:50:33;14.90;99.90
54461;DHT22;40371;49.414;11.010;2022-09-09T04:53:03;15.10;99.90
54461;DHT22;40371;49.414;11.010;2022-09-09T04:55:31;15.10;99.90
54461;DHT22;40371;49.414;11.010;2022-09-09T04:57:57;15.10;99.90
54461;DHT22;40371;49.414;11.010;2022-09-09T05:00:26;15.10;99.90
54461;DHT22;40371;49.414;11.010;2022-09-09T05:02:52;15.10;99.90
54461;DHT22;40371;49.414;11.010;2022-09-09T05:05:20;15.20;99.90
54461;DHT22;40371;49.414;11.010;2022-09-09T05:07:48;15.30;99.90
54461;DHT22;40371;49.414;11.010;2022-09-09T05:10:14;15.30;99.90
54461;DHT22;40371;49.414;11.010;2022-09-09T05:12:42;15.30;99.90
54461;DHT22;40371;49.414;11.010;2022-09-09T05:15:08;15.40;99.90
54461;DHT22;40371;49.414;11.010;2022-09-09T05:17:35;15.30;99.90
54461;DHT22;40371;49.414;11.010;2022-09-09T05:20:01;15.20;99.90
54461;DHT22;40371;49.414;11.010;2022-09-09T05:22:30;15.30;99.90
54461;DHT22;40371;49.414;11.010;2022-09-09T05:24:55;15.20;99.90
54461;DHT22;40371;49.414;11.010;2022-09-09T05:27:21;15.30;99.90
54461;DHT22;40371;49.414;11.010;2022-09-09T05:29:48;15.30;99.90
54461;DHT22;40371;49.414;11.010;2022-09-09T05:32:14;15.30;99.90
54461;DHT22;40371;49.414;11.010;2022-09-09T05:34:43;15.30;99.90
54461;DHT22;40371;49.414;11.010;2022-09-09T05:37:09;15.30;99.90
54461;DHT22;40371;49.414;11.010;2022-09-09T05:39:36;15.40;99.90
54461;DHT22;40371;49.414;11.010;2022-09-09T05:42:03;15.40;99.90
54461;DHT22;40371;49.414;11.010;2022-09-09T05:44:29;15.40;99.90
54461;DHT22;40371;49.414;11.010;2022-09-09T05:46:55;15.50;99.90
54461;DHT22;40371;49.414;11.010;2022-09-09T05:49:21;15.40;99.90
54461;DHT22;40371;49.414;11.010;2022-09-09T05:51:47;15.30;99.90
54461;DHT22;40371;49.414;11.010;2022-09-09T05:54:17;15.40;99.90
54461;DHT22;40371;49.414;11.010;2022-09-09T05:56:47;15.30;99.90
54461;DHT22;40371;49.414;11.010;2022-09-09T05:59:14;15.10;99.90
54461;DHT22;40371;49.414;11.010;2022-09-09T06:01:40;15.20;99.90
54461;DHT22;40371;49.414;11.010;2022-09-09T06:04:08;15.40;99.90
54461;DHT22;40371;49.414;11.010;2022-09-09T06:06:36;15.40;99.90
54461;DHT22;40371;49.414;11.010;2022-09-09T06:09:06;15.40;99.90
54461;DHT22;40371;49.414;11.010;2022-09-09T06:11:36;15.40;99.90
54461;DHT22;40371;49.414;11.010;2022-09-09T06:14:03;15.50;99.90
54461;DHT22;40371;49.414;11.010;2022-09-09T06:16:30;15.40;99.90
54461;DHT22;40371;49.414;11.010;2022-09-09T06:18:58;15.30;99.90
54461;DHT22;40371;49.414;11.010;2022-09-09T06:21:31;15.50;99.90
54461;DHT22;40371;49.414;11.010;2022-09-09T06:24:03;15.80;99.90
54461;DHT22;40371;49.414;11.010;2022-09-09T06:26:34;15.90;99.90
54461;DHT22;40371;49.414;11.010;2022-09-09T06:29:02;16.10;99.90
54461;DHT22;40371;49.414;11.010;2022-09-09T06:31:31;16.20;99.90
54461;DHT22;40371;49.414;11.010;2022-09-09T06:34:01;16.30;99.90
54461;DHT22;40371;49.414;11.010;2022-09-09T06:36:30;16.20;99.90
54461;DHT22;40371;49.414;11.010;2022-09-09T06:38:56;16.00;99.90
54461;DHT22;40371;49.414;11.010;2022-09-09T06:41:24;16.10;99.90
54461;DHT22;40371;49.414;11.010;2022-09-09T06:43:52;16.20;99.90
54461;DHT22;40371;49.414;11.010;2022-09-09T06:46:25;16.30;99.90
54461;DHT22;40371;49.414;11.010;2022-09-09T06:48:56;16.50;99.90
54461;DHT22;40371;49.414;11.010;2022-09-09T06:51:26;16.50;99.90
54461;DHT22;40371;49.414;11.010;2022-09-09T06:53:53;16.70;99.90
54461;DHT22;40371;49.414;11.010;2022-09-09T06:56:28;16.70;99.90
54461;DHT22;40371;49.414;11.010;2022-09-09T06:58:58;16.70;99.90
54461;DHT22;40371;49.414;11.010;2022-09-09T07:01:29;16.90;99.90
54461;DHT22;40371;49.414;11.010;2022-09-09T07:03:58;17.20;99.90
54461;DHT22;40371;49.414;11.010;2022-09-09T07:06:32;17.30;99.90
54461;DHT22;40371;49.414;11.010;2022-09-09T07:09:02;17.60;99.90
54461;DHT22;40371;49.414;11.010;2022-09-09T07:11:39;17.50;99.90
54461;DHT22;40371;49.414;11.010;2022-09-09T07:14:04;17.60;99.90
54461;DHT22;40371;49.414;11.010;2022-09-09T07:16:30;17.60;99.90
54461;DHT22;40371;49.414;11.010;2022-09-09T07:18:59;17.60;99.90
54461;DHT22;40371;49.414;11.010;2022-09-09T07:21:28;17.60;99.90
54461;DHT22;40371;49.414;11.010;2022-09-09T07:23:54;17.30;99.90
54461;DHT22;40371;49.414;11.010;2022-09-09T07:26:23;17.20;99.90
54461;DHT22;40371;49.414;11.010;2022-09-09T07:28:51;17.00;99.90
54461;DHT22;40371;49.414;11.010;2022-09-09T07:31:19;17.00;99.90
54461;DHT22;40371;49.414;11.010;2022-09-09T07:33:46;17.50;99.90
54461;DHT22;40371;49.414;11.010;2022-09-09T07:36:15;18.00;99.90
54461;DHT22;40371;49.414;11.010;2022-09-09T07:38:43;18.50;99.90
54461;DHT22;40371;49.414;11.010;2022-09-09T07:41:16;18.90;99.90
54461;DHT22;40371;49.414;11.010;2022-09-09T07:43:45;19.30;99.90
54461;DHT22;40371;49.414;11.010;2022-09-09T07:46:12;23.70;99.90
54461;DHT22;40371;49.414;11.010;2022-09-09T07:48:44;25.60;99.90
54461;DHT22;40371;49.414;11.010;2022-09-09T07:51:13;28.30;99.90
54461;DHT22;40371;49.414;11.010;2022-09-09T07:53:44;30.20;99.90
54461;DHT22;40371;49.414;11.010;2022-09-09T07:56:14;32.00;96.80
54461;DHT22;40371;49.414;11.010;2022-09-09T07:58:41;33.30;92.80
54461;DHT22;40371;49.414;11.010;2022-09-09T08:01:18;33.10;91.00
54461;DHT22;40371;49.414;11.010;2022-09-09T08:03:45;32.50;90.60
54461;DHT22;40371;49.414;11.010;2022-09-09T08:06:12;33.00;89.50
54461;DHT22;40371;49.414;11.010;2022-09-09T08:08:38;33.10;87.90
54461;DHT22;40371;49.414;11.010;2022-09-09T08:11:12;34.40;81.80
54461;DHT22;40371;49.414;11.010;2022-09-09T08:13:39;34.20;83.10
54461;DHT22;40371;49.414;11.010;2022-09-09T08:16:11;33.80;79.70
54461;DHT22;40371;49.414;11.010;2022-09-09T08:18:38;34.40;80.50
54461;DHT22;40371;49.414;11.010;2022-09-09T08:21:06;36.30;75.90
54461;DHT22;40371;49.414;11.010;2022-09-09T08:23:32;36.30;73.20
54461;DHT22;40371;49.414;11.010;2022-09-09T08:26:19;36.80;73.50
54461;DHT22;40371;49.414;11.010;2022-09-09T08:28:50;37.20;70.00
54461;DHT22;40371;49.414;11.010;2022-09-09T08:33:44;35.20;69.80
54461;DHT22;40371;49.414;11.010;2022-09-09T08:36:19;34.20;70.40
54461;DHT22;40371;49.414;11.010;2022-09-09T08:38:50;34.10;70.20
54461;DHT22;40371;49.414;11.010;2022-09-09T08:42:02;35.20;68.20
54461;DHT22;40371;49.414;11.010;2022-09-09T08:52:25;33.10;68.90
54461;DHT22;40371;49.414;11.010;2022-09-09T08:54:56;34.80;66.20
54461;DHT22;40371;49.414;11.010;2022-09-09T08:57:26;33.20;66.30
54461;DHT22;40371;49.414;11.010;2022-09-09T08:59:54;30.60;69.50
54461;DHT22;40371;49.414;11.010;2022-09-09T09:02:42;30.00;72.20
54461;DHT22;40371;49.414;11.010;2022-09-09T09:05:30;29.00;74.50
54461;DHT22;40371;49.414;11.010;2022-09-09T09:10:49;27.60;78.20
54461;DHT22;40371;49.414;11.010;2022-09-09T09:13:43;28.30;75.80
54461;DHT22;40371;49.414;11.010;2022-09-09T09:19:04;29.70;75.60
54461;DHT22;40371;49.414;11.010;2022-09-09T09:21:43;33.50;68.50
54461;DHT22;40371;49.414;11.010;2022-09-09T09:24:30;35.10;66.30
54461;DHT22;40371;49.414;11.010;2022-09-09T09:27:11;36.50;59.90
54461;DHT22;40371;49.414;11.010;2022-09-09T09:29:38;32.20;65.10
54461;DHT22;40371;49.414;11.010;2022-09-09T09:32:04;31.40;67.70
54461;DHT22;40371;49.414;11.010;2022-09-09T09:34:31;35.00;63.50
54461;DHT22;40371;49.414;11.010;2022-09-09T09:36:58;34.30;63.30
54461;DHT22;40371;49.414;11.010;2022-09-09T09:39:31;34.30;64.70
54461;DHT22;40371;49.414;11.010;2022-09-09T09:42:10;34.90;61.50
54461;DHT22;40371;49.414;11.010;2022-09-09T09:44:40;32.60;66.40
54461;DHT22;40371;49.414;11.010;2022-09-09T09:47:20;33.20;62.70
54461;DHT22;40371;49.414;11.010;2022-09-09T09:49:56;33.00;62.70
54461;DHT22;40371;49.414;11.010;2022-09-09T09:52:26;30.00;68.70
54461;DHT22;40371;49.414;11.010;2022-09-09T09:54:55;29.70;71.50
54461;DHT22;40371;49.414;11.010;2022-09-09T09:57:27;29.70;71.80
54461;DHT22;40371;49.414;11.010;2022-09-09T10:00:13;30.50;67.60
54461;DHT22;40371;49.414;11.010;2022-09-09T10:02:47;28.80;70.90
54461;DHT22;40371;49.414;11.010;2022-09-09T10:05:27;27.80;74.10
54461;DHT22;40371;49.414;11.010;2022-09-09T10:08:03;27.20;76.30
54461;DHT22;40371;49.414;11.010;2022-09-09T10:10:42;27.20;76.50
54461;DHT22;40371;49.414;11.010;2022-09-09T10:13:18;26.80;78.00
54461;DHT22;40371;49.414;11.010;2022-09-09T10:19:10;29.10;72.90
54461;DHT22;40371;49.414;11.010;2022-09-09T10:27:19;29.30;72.90
54461;DHT22;40371;49.414;11.010;2022-09-09T10:32:41;29.30;70.20
54461;DHT22;40371;49.414;11.010;2022-09-09T10:35:12;27.40;75.40
54461;DHT22;40371;49.414;11.010;2022-09-09T10:38:04;27.00;76.20
54461;DHT22;40371;49.414;11.010;2022-09-09T10:52:23;28.10;72.70
54461;DHT22;40371;49.414;11.010;2022-09-09T10:54:59;28.20;74.80
54461;DHT22;40371;49.414;11.010;2022-09-09T11:00:21;28.30;71.30
54461;DHT22;40371;49.414;11.010;2022-09-09T11:02:56;28.10;71.70
54461;DHT22;40371;49.414;11.010;2022-09-09T11:05:39;27.20;74.10
54461;DHT22;40371;49.414;11.010;2022-09-09T11:08:12;26.80;76.30
54461;DHT22;40371;49.414;11.010;2022-09-09T11:16:16;25.80;78.80
54461;DHT22;40371;49.414;11.010;2022-09-09T11:18:46;25.40;79.00
54461;DHT22;40371;49.414;11.010;2022-09-09T11:21:32;25.00;79.90
54461;DHT22;40371;49.414;11.010;2022-09-09T11:24:10;24.80;80.90
54461;DHT22;40371;49.414;11.010;2022-09-09T11:26:47;25.40;80.40
54461;DHT22;40371;49.414;11.010;2022-09-09T11:38:16;24.40;84.30
54461;DHT22;40371;49.414;11.010;2022-09-09T11:40:44;24.70;83.40
54461;DHT22;40371;49.414;11.010;2022-09-09T11:43:16;24.50;82.20
54461;DHT22;40371;49.414;11.010;2022-09-09T11:45:54;23.80;85.30
54461;DHT22;40371;49.414;11.010;2022-09-09T11:48:56;23.80;85.40
54461;DHT22;40371;49.414;11.010;2022-09-09T11:51:27;23.90;84.40
54461;DHT22;40371;49.414;11.010;2022-09-09T11:54:27;23.60;86.00
54461;DHT22;40371;49.414;11.010;2022-09-09T11:56:46;23.50;87.00
54461;DHT22;40371;49.414;11.010;2022-09-09T11:59:27;23.30;86.70
54461;DHT22;40371;49.414;11.010;2022-09-09T12:02:13;23.30;87.40
54461;DHT22;40371;49.414;11.010;2022-09-09T12:05:07;23.10;87.20
54461;DHT22;40371;49.414;11.010;2022-09-09T12:10:29;22.70;95.90
54461;DHT22;40371;49.414;11.010;2022-09-09T12:12:55;22.50;97.70
54461;DHT22;40371;49.414;11.010;2022-09-09T12:15:32;22.20;99.90
54461;DHT22;40371;49.414;11.010;2022-09-09T12:17:58;22.10;97.40
54461;DHT22;40371;49.414;11.010;2022-09-09T12:23:16;21.80;99.90
54461;DHT22;40371;49.414;11.010;2022-09-09T12:31:48;22.10;99.60
54461;DHT22;40371;49.414;11.010;2022-09-09T12:37:05;22.50;99.00
54461;DHT22;40371;49.414;11.010;2022-09-09T12:39:57;22.70;98.70
54461;DHT22;40371;49.414;11.010;2022-09-09T12:42:25;22.80;99.30
54461;DHT22;40371;49.414;11.010;2022-09-09T12:44:59;23.00;98.80
54461;DHT22;40371;49.414;11.010;2022-09-09T12:47:41;23.10;97.80
54461;DHT22;40371;49.414;11.010;2022-09-09T12:50:29;23.20;97.50
54461;DHT22;40371;49.414;11.010;2022-09-09T12:53:00;23.20;96.20
54461;DHT22;40371;49.414;11.010;2022-09-09T12:55:36;23.20;96.60
54461;DHT22;40371;49.414;11.010;2022-09-09T12:58:04;23.10;95.80
54461;DHT22;40371;49.414;11.010;2022-09-09T13:00:32;23.10;96.70
54461;DHT22;40371;49.414;11.010;2022-09-09T13:03:14;22.90;94.70
54461;DHT22;40371;49.414;11.010;2022-09-09T13:05:41;22.30;94.70
54461;DHT22;40371;49.414;11.010;2022-09-09T13:08:11;22.20;95.90
54461;DHT22;40371;49.414;11.010;2022-09-09T13:13:14;22.30;96.30
54461;DHT22;40371;49.414;11.010;2022-09-09T13:15:52;22.40;96.80
54461;DHT22;40371;49.414;11.010;2022-09-09T13:18:22;22.60;96.60
54461;DHT22;40371;49.414;11.010;2022-09-09T13:20:49;22.90;96.20
54461;DHT22;40371;49.414;11.010;2022-09-09T13:23:16;23.00;96.50
54461;DHT22;40371;49.414;11.010;2022-09-09T13:25:56;23.00;96.20
54461;DHT22;40371;49.414;11.010;2022-09-09T13:28:24;23.00;95.80
54461;DHT22;40371;49.414;11.010;2022-09-09T13:30:58;23.00;95.90
54461;DHT22;40371;49.414;11.010;2022-09-09T13:33:37;23.10;96.00
54461;DHT22;40371;49.414;11.010;2022-09-09T13:36:09;23.30;95.80
54461;DHT22;40371;49.414;11.010;2022-09-09T13:38:38;23.20;94.80
54461;DHT22;40371;49.414;11.010;2022-09-09T13:41:10;23.20;94.60
54461;DHT22;40371;49.414;11.010;2022-09-09T13:43:54;23.00;94.20
54461;DHT22;40371;49.414;11.010;2022-09-09T13:46:38;23.00;95.00
54461;DHT22;40371;49.414;11.010;2022-09-09T13:54:03;23.40;94.70
54461;DHT22;40371;49.414;11.010;2022-09-09T13:56:30;23.40;94.50
54461;DHT22;40371;49.414;11.010;2022-09-09T13:58:57;23.40;93.90
54461;DHT22;40371;49.414;11.010;2022-09-09T14:01:23;23.50;94.10
54461;DHT22;40371;49.414;11.010;2022-09-09T14:03:49;23.50;94.50
54461;DHT22;40371;49.414;11.010;2022-09-09T14:06:16;23.50;94.30
54461;DHT22;40371;49.414;11.010;2022-09-09T14:08:41;23.40;94.20
54461;DHT22;40371;49.414;11.010;2022-09-09T14:11:11;23.40;94.60
54461;DHT22;40371;49.414;11.010;2022-09-09T14:13:37;23.20;94.60
54461;DHT22;40371;49.414;11.010;2022-09-09T14:16:04;23.20;95.10
54461;DHT22;40371;49.414;11.010;2022-09-09T14:18:30;23.10;94.90
54461;DHT22;40371;49.414;11.010;2022-09-09T14:20:55;23.10;95.20
54461;DHT22;40371;49.414;11.010;2022-09-09T14:23:22;23.20;95.20
54461;DHT22;40371;49.414;11.010;2022-09-09T14:25:48;23.10;96.00
54461;DHT22;40371;49.414;11.010;2022-09-09T14:28:14;23.00;95.70
54461;DHT22;40371;49.414;11.010;2022-09-09T14:30:41;22.70;96.20
54461;DHT22;40371;49.414;11.010;2022-09-09T14:33:12;22.50;96.30
54461;DHT22;40371;49.414;11.010;2022-09-09T14:35:37;22.30;96.90
54461;DHT22;40371;49.414;11.010;2022-09-09T14:38:04;22.40;97.20
54461;DHT22;40371;49.414;11.010;2022-09-09T14:40:30;22.30;97.80
54461;DHT22;40371;49.414;11.010;2022-09-09T14:42:56;22.30;97.70
54461;DHT22;40371;49.414;11.010;2022-09-09T14:45:23;22.20;97.90
54461;DHT22;40371;49.414;11.010;2022-09-09T14:47:50;22.00;98.00
54461;DHT22;40371;49.414;11.010;2022-09-09T14:50:16;21.80;98.40
54461;DHT22;40371;49.414;11.010;2022-09-09T14:52:42;21.90;98.70
54461;DHT22;40371;49.414;11.010;2022-09-09T14:55:08;21.80;99.50
54461;DHT22;40371;49.414;11.010;2022-09-09T14:57:33;21.90;99.90
54461;DHT22;40371;49.414;11.010;2022-09-09T15:00:02;22.00;99.90
54461;DHT22;40371;49.414;11.010;2022-09-09T15:02:28;21.90;98.80
54461;DHT22;40371;49.414;11.010;2022-09-09T15:04:55;21.60;99.60
54461;DHT22;40371;49.414;11.010;2022-09-09T15:07:24;21.80;99.10
54461;DHT22;40371;49.414;11.010;2022-09-09T15:09:49;21.90;99.00
54461;DHT22;40371;49.414;11.010;2022-09-09T15:12:15;22.20;98.70
54461;DHT22;40371;49.414;11.010;2022-09-09T15:14:44;22.40;98.30
54461;DHT22;40371;49.414;11.010;2022-09-09T15:17:10;22.30;97.70
54461;DHT22;40371;49.414;11.010;2022-09-09T15:19:36;22.00;98.20
54461;DHT22;40371;49.414;11.010;2022-09-09T15:22:03;21.70;98.50
54461;DHT22;40371;49.414;11.010;2022-09-09T15:24:28;21.70;98.40
54461;DHT22;40371;49.414;11.010;2022-09-09T15:26:54;21.60;98.50
54461;DHT22;40371;49.414;11.010;2022-09-09T15:29:19;21.40;98.50
54461;DHT22;40371;49.414;11.010;2022-09-09T15:31:45;21.40;98.50
54461;DHT22;40371;49.414;11.010;2022-09-09T15:34:12;21.30;98.60
54461;DHT22;40371;49.414;11.010;2022-09-09T15:36:43;21.50;98.70
54461;DHT22;40371;49.414;11.010;2022-09-09T15:39:13;21.70;98.80
54461;DHT22;40371;49.414;11.010;2022-09-09T15:41:41;21.80;98.70
54461;DHT22;40371;49.414;11.010;2022-09-09T15:44:07;21.80;98.10
54461;DHT22;40371;49.414;11.010;2022-09-09T15:49:13;21.70;96.90
54461;DHT22;40371;49.414;11.010;2022-09-09T15:51:41;21.60;96.60
54461;DHT22;40371;49.414;11.010;2022-09-09T15:54:09;21.70;96.60
54461;DHT22;40371;49.414;11.010;2022-09-09T15:56:34;21.70;95.50
54461;DHT22;40371;49.414;11.010;2022-09-09T15:59:01;21.70;94.60
54461;DHT22;40371;49.414;11.010;2022-09-09T16:01:28;21.60;93.90
54461;DHT22;40371;49.414;11.010;2022-09-09T16:03:56;21.60;93.40
54461;DHT22;40371;49.414;11.010;2022-09-09T16:06:22;21.30;93.70
54461;DHT22;40371;49.414;11.010;2022-09-09T16:08:51;21.20;94.00
54461;DHT22;40371;49.414;11.010;2022-09-09T16:11:20;21.00;94.30
54461;DHT22;40371;49.414;11.010;2022-09-09T16:13:47;21.10;94.60
54461;DHT22;40371;49.414;11.010;2022-09-09T16:16:14;21.20;94.80
54461;DHT22;40371;49.414;11.010;2022-09-09T16:18:46;21.20;94.70
54461;DHT22;40371;49.414;11.010;2022-09-09T16:21:23;21.30;94.80
54461;DHT22;40371;49.414;11.010;2022-09-09T16:23:54;21.50;95.00
54461;DHT22;40371;49.414;11.010;2022-09-09T16:26:20;21.70;94.90
54461;DHT22;40371;49.414;11.010;2022-09-09T16:28:47;21.80;94.60
54461;DHT22;40371;49.414;11.010;2022-09-09T16:31:16;21.70;94.40
54461;DHT22;40371;49.414;11.010;2022-09-09T16:33:43;21.70;94.40
54461;DHT22;40371;49.414;11.010;2022-09-09T16:36:15;21.80;94.90
54461;DHT22;40371;49.414;11.010;2022-09-09T16:38:41;22.00;94.80
54461;DHT22;40371;49.414;11.010;2022-09-09T16:41:09;22.10;94.50
54461;DHT22;40371;49.414;11.010;2022-09-09T16:43:36;21.90;94.30
54461;DHT22;40371;49.414;11.010;2022-09-09T16:46:13;21.80;94.10
54461;DHT22;40371;49.414;11.010;2022-09-09T16:48:41;21.70;94.00
54461;DHT22;40371;49.414;11.010;2022-09-09T16:51:21;21.70;94.30
54461;DHT22;40371;49.414;11.010;2022-09-09T16:53:49;21.60;94.10
54461;DHT22;40371;49.414;11.010;2022-09-09T16:56:17;21.50;94.40
54461;DHT22;40371;49.414;11.010;2022-09-09T16:58:52;21.40;94.80
54461;DHT22;40371;49.414;11.010;2022-09-09T17:01:24;21.40;95.00
54461;DHT22;40371;49.414;11.010;2022-09-09T17:03:57;21.30;95.20
54461;DHT22;40371;49.414;11.010;2022-09-09T17:06:23;21.40;95.40
54461;DHT22;40371;49.414;11.010;2022-09-09T17:08:57;21.30;95.10
54461;DHT22;40371;49.414;11.010;2022-09-09T17:11:23;21.30;95.20
54461;DHT22;40371;49.414;11.010;2022-09-09T17:13:50;21.20;95.00
54461;DHT22;40371;49.414;11.010;2022-09-09T17:16:19;21.30;95.40
54461;DHT22;40371;49.414;11.010;2022-09-09T17:18:47;21.10;95.30
54461;DHT22;40371;49.414;11.010;2022-09-09T17:21:15;21.10;95.80
54461;DHT22;40371;49.414;11.010;2022-09-09T17:23:42;21.00;96.20
54461;DHT22;40371;49.414;11.010;2022-09-09T17:26:12;21.00;96.10
54461;DHT22;40371;49.414;11.010;2022-09-09T17:28:39;20.90;96.20
54461;DHT22;40371;49.414;11.010;2022-09-09T17:31:07;20.90;96.30
54461;DHT22;40371;49.414;11.010;2022-09-09T17:33:38;21.00;96.70
54461;DHT22;40371;49.414;11.010;2022-09-09T17:36:12;20.90;96.60
54461;DHT22;40371;49.414;11.010;2022-09-09T17:38:40;20.90;96.60
54461;DHT22;40371;49.414;11.010;2022-09-09T17:41:21;20.90;96.60
54461;DHT22;40371;49.414;11.010;2022-09-09T17:43:47;20.90;96.40
54461;DHT22;40371;49.414;11.010;2022-09-09T17:46:24;20.90;96.80